Time;durP1;ratioP1;P1;durP2;ratioP2;P2;SDS_P1;SDS_P2;PMS_P1;PMS_P2;Temp;Humidity;BMP_temperature;BMP_pressure;BME280_temperature;BME280_humidity;BME280_pressure;Samples;Min_cycle;Max_cycle;Signal;HPM_P1;HPM_P2
2021/03/19 00:00:14;;;;;;;3.60;1.60;;;;;;;;;;5036136;28;20039;-74
2021/03/19 00:02:40;;;;;;;4.15;1.40;;;;;;;;;;5036000;28;20060;-74
2021/03/19 00:05:07;;;;;;;2.85;1.42;;;;;;;;;;5019629;28;20134;-74
2021/03/19 00:07:43;;;;;;;3.35;1.35;;;;;;;;;;5052821;28;20112;-74
2021/03/19 00:10:10;;;;;;;2.95;1.20;;;;;;;;;;5052789;28;20150;-74
2021/03/19 00:12:35;;;;;;;2.42;1.40;;;;;;;;;;5019399;28;20090;-74
2021/03/19 00:15:01;;;;;;;3.08;1.42;;;;;;;;;;5032706;28;20138;-74
2021/03/19 00:17:27;;;;;;;2.53;1.10;;;;;;;;;;5033512;28;20068;-74
2021/03/19 00:19:52;;;;;;;3.40;1.35;;;;;;;;;;5016173;28;20553;-74
2021/03/19 00:22:17;;;;;;;4.90;1.88;;;;;;;;;;5016083;28;20671;-74
2021/03/19 00:24:43;;;;;;;2.47;1.33;;;;;;;;;;4999940;28;20450;-73
2021/03/19 00:27:08;;;;;;;3.72;1.67;;;;;;;;;;5015752;28;20045;-74
2021/03/19 00:29:34;;;;;;;2.70;1.33;;;;;;;;;;5032665;28;20369;-74
2021/03/19 00:31:59;;;;;;;3.83;1.25;;;;;;;;;;5032657;28;20038;-74
2021/03/19 00:34:25;;;;;;;4.45;1.60;;;;;;;;;;4999626;28;20042;-74
2021/03/19 00:36:50;;;;;;;2.53;1.33;;;;;;;;;;5015787;28;20406;-74
2021/03/19 00:39:16;;;;;;;3.28;1.30;;;;;;;;;;5015780;28;20399;-74
2021/03/19 00:41:41;;;;;;;4.88;1.20;;;;;;;;;;5015356;28;20389;-74
2021/03/19 00:44:06;;;;;;;3.58;1.42;;;;;;;;;;5032362;28;20790;-74
2021/03/19 00:46:32;;;;;;;2.45;1.08;;;;;;;;;;5032429;28;20463;-74
2021/03/19 00:48:57;;;;;;;2.67;1.00;;;;;;;;;;5015608;28;20451;-74
2021/03/19 00:51:23;;;;;;;2.20;1.10;;;;;;;;;;5049462;28;20387;-74
2021/03/19 00:53:48;;;;;;;2.58;0.80;;;;;;;;;;5051762;28;20407;-74
2021/03/19 00:56:13;;;;;;;2.97;1.20;;;;;;;;;;5035263;28;20399;-74
2021/03/19 00:58:39;;;;;;;2.42;1.10;;;;;;;;;;5035141;28;20091;-74
2021/03/19 01:01:04;;;;;;;2.08;1.10;;;;;;;;;;5051864;28;20032;-74
2021/03/19 01:03:30;;;;;;;3.90;1.10;;;;;;;;;;5052196;28;20391;-74
2021/03/19 01:05:55;;;;;;;3.90;1.00;;;;;;;;;;5035327;28;20407;-74
2021/03/19 01:08:21;;;;;;;2.78;0.82;;;;;;;;;;5035035;28;20399;-74
2021/03/19 01:10:51;;;;;;;3.33;1.00;;;;;;;;;;5051234;28;20411;-73
2021/03/19 01:13:17;;;;;;;2.60;1.02;;;;;;;;;;5032619;28;20037;-74
2021/03/19 01:15:42;;;;;;;2.80;1.10;;;;;;;;;;5034966;28;20055;-74
2021/03/19 01:18:09;;;;;;;2.42;1.00;;;;;;;;;;5035161;28;20056;-74
2021/03/19 01:20:35;;;;;;;2.78;0.90;;;;;;;;;;5035169;28;20041;-74
2021/03/19 01:23:01;;;;;;;2.10;0.88;;;;;;;;;;5030282;28;20034;-73
2021/03/19 01:25:27;;;;;;;2.58;1.17;;;;;;;;;;5031370;28;20037;-74
2021/03/19 01:27:52;;;;;;;3.03;1.10;;;;;;;;;;5032652;28;20072;-73
2021/03/19 01:30:20;;;;;;;3.03;0.77;;;;;;;;;;5031401;28;20041;-74
2021/03/19 01:32:45;;;;;;;2.92;1.00;;;;;;;;;;5031408;28;20109;-74
2021/03/19 01:35:12;;;;;;;2.85;1.40;;;;;;;;;;5015196;28;20614;-75
2021/03/19 01:37:37;;;;;;;3.05;0.93;;;;;;;;;;5015240;28;20886;-75
2021/03/19 01:40:05;;;;;;;1.75;1.00;;;;;;;;;;5047367;28;20041;-75
2021/03/19 01:42:31;;;;;;;2.80;0.80;;;;;;;;;;5030851;28;20034;-76
2021/03/19 01:45:35;;;;;;;2.53;0.95;;;;;;;;;;5014745;28;20049;-75
2021/03/19 01:48:38;;;;;;;3.00;0.80;;;;;;;;;;5023912;28;20045;-75
2021/03/19 01:51:41;;;;;;;1.25;0.60;;;;;;;;;;5046858;28;20029;-75
2021/03/19 01:54:43;;;;;;;1.25;0.70;;;;;;;;;;5051801;28;20111;-75
2021/03/19 01:57:46;;;;;;;1.67;0.88;;;;;;;;;;5052269;28;20037;-75
2021/03/19 02:00:48;;;;;;;2.65;0.75;;;;;;;;;;5051840;28;20037;-75
2021/03/19 02:03:51;;;;;;;2.17;1.00;;;;;;;;;;5052352;28;20040;-75
2021/03/19 02:06:54;;;;;;;2.55;0.63;;;;;;;;;;5051879;28;20047;-75
2021/03/19 02:09:57;;;;;;;2.05;0.60;;;;;;;;;;5051699;28;20029;-75
2021/03/19 02:13:00;;;;;;;1.92;0.82;;;;;;;;;;5052293;28;20507;-74
2021/03/19 02:16:02;;;;;;;1.92;0.73;;;;;;;;;;5049608;28;20041;-74
2021/03/19 02:19:05;;;;;;;1.85;0.60;;;;;;;;;;5030893;28;20049;-74
2021/03/19 02:22:08;;;;;;;2.75;0.95;;;;;;;;;;5031657;28;20048;-74
2021/03/19 02:25:11;;;;;;;2.45;0.90;;;;;;;;;;5031784;28;20049;-74
2021/03/19 02:27:54;;;;;;;;;;;;;;;;;;5032303;28;20072;-74
2021/03/19 02:30:57;;;;;;;1.77;0.73;;;;;;;;;;5030530;28;19920;-74
2021/03/19 02:33:23;;;;;;;1.60;0.60;;;;;;;;;;5032276;28;20079;-74
2021/03/19 02:35:56;;;;;;;1.73;0.70;;;;;;;;;;5031038;28;20076;-74
2021/03/19 02:38:21;;;;;;;1.38;0.60;;;;;;;;;;5030679;28;20426;-74
2021/03/19 02:40:48;;;;;;;1.92;0.80;;;;;;;;;;5030409;28;20044;-74
2021/03/19 02:43:14;;;;;;;2.75;1.00;;;;;;;;;;4997866;28;20041;-74
2021/03/19 02:45:40;;;;;;;2.20;1.08;;;;;;;;;;5013980;28;20033;-74
2021/03/19 02:48:06;;;;;;;3.08;1.10;;;;;;;;;;5014193;28;20034;-74
2021/03/19 02:50:31;;;;;;;2.15;1.02;;;;;;;;;;5023924;28;20033;-74
2021/03/19 02:52:57;;;;;;;1.02;0.60;;;;;;;;;;5032956;28;20473;-74
2021/03/19 02:55:22;;;;;;;1.95;0.88;;;;;;;;;;5037284;28;20418;-74
2021/03/19 02:57:48;;;;;;;1.50;0.60;;;;;;;;;;5037611;28;20045;-74
2021/03/19 03:00:17;;;;;;;1.88;0.63;;;;;;;;;;5037683;28;20403;-74
2021/03/19 03:02:43;;;;;;;2.85;1.05;;;;;;;;;;5021572;28;20047;-74
2021/03/19 03:05:09;;;;;;;1.95;0.90;;;;;;;;;;5055065;28;20506;-74
2021/03/19 03:07:34;;;;;;;1.77;0.70;;;;;;;;;;5021140;28;20124;-74
2021/03/19 03:10:00;;;;;;;2.17;0.80;;;;;;;;;;5032481;28;20043;-74
2021/03/19 03:12:26;;;;;;;2.40;0.85;;;;;;;;;;5001434;28;20048;-74
2021/03/19 03:14:51;;;;;;;1.60;0.90;;;;;;;;;;5020975;28;20033;-74
2021/03/19 03:17:17;;;;;;;2.15;0.90;;;;;;;;;;5034317;28;20083;-74
2021/03/19 03:19:42;;;;;;;1.48;0.75;;;;;;;;;;5033606;28;20041;-74
2021/03/19 03:22:08;;;;;;;1.67;0.90;;;;;;;;;;5017098;28;20084;-74
2021/03/19 03:24:33;;;;;;;1.60;0.80;;;;;;;;;;5034153;28;20411;-74
2021/03/19 03:26:59;;;;;;;1.63;0.85;;;;;;;;;;5033609;28;20142;-74
2021/03/19 03:29:25;;;;;;;1.95;1.08;;;;;;;;;;5033586;28;20380;-74
2021/03/19 03:31:50;;;;;;;1.33;0.73;;;;;;;;;;5067135;28;20041;-74
2021/03/19 03:34:16;;;;;;;2.15;1.00;;;;;;;;;;5000624;28;20032;-74
2021/03/19 03:36:41;;;;;;;1.80;0.80;;;;;;;;;;5066766;28;20086;-74
2021/03/19 03:39:09;;;;;;;1.85;0.90;;;;;;;;;;5033514;28;20042;-74
2021/03/19 03:41:34;;;;;;;2.67;1.13;;;;;;;;;;5033337;28;20388;-74
2021/03/19 03:44:00;;;;;;;2.65;0.70;;;;;;;;;;5050051;28;20095;-74
2021/03/19 03:46:26;;;;;;;1.77;0.82;;;;;;;;;;5050283;28;20048;-74
2021/03/19 03:48:53;;;;;;;1.80;0.90;;;;;;;;;;5066230;28;20034;-74
2021/03/19 03:51:18;;;;;;;2.03;0.95;;;;;;;;;;5033268;28;20091;-74
2021/03/19 03:53:43;;;;;;;1.55;0.70;;;;;;;;;;5033292;28;20045;-74
2021/03/19 03:56:12;;;;;;;2.38;1.17;;;;;;;;;;5033402;28;20037;-74
2021/03/19 03:58:37;;;;;;;2.35;1.10;;;;;;;;;;5032915;28;20526;-74
2021/03/19 04:01:03;;;;;;;3.05;0.98;;;;;;;;;;5016873;28;20041;-74
2021/03/19 04:03:28;;;;;;;2.80;0.77;;;;;;;;;;5049739;28;20112;-74
2021/03/19 04:05:54;;;;;;;1.63;0.82;;;;;;;;;;5034812;28;20049;-74
2021/03/19 04:08:23;;;;;;;1.63;0.88;;;;;;;;;;5036244;28;20407;-74
2021/03/19 04:10:49;;;;;;;1.48;0.70;;;;;;;;;;5036236;28;20142;-75
2021/03/19 04:13:14;;;;;;;2.00;0.88;;;;;;;;;;5056321;28;20410;-74
2021/03/19 04:15:40;;;;;;;1.85;0.70;;;;;;;;;;5036121;28;20037;-74
2021/03/19 04:18:09;;;;;;;1.45;0.93;;;;;;;;;;5036333;28;20521;-74
2021/03/19 04:20:34;;;;;;;1.45;0.80;;;;;;;;;;5036647;28;20500;-74
2021/03/19 04:23:00;;;;;;;2.20;0.82;;;;;;;;;;5035814;28;20037;-74
2021/03/19 04:25:25;;;;;;;2.13;0.60;;;;;;;;;;5019480;28;20504;-74
2021/03/19 04:27:53;;;;;;;1.88;0.95;;;;;;;;;;5035654;28;20380;-74
2021/03/19 04:30:42;;;;;;;1.83;0.77;;;;;;;;;;5018805;28;20037;-73
2021/03/19 04:33:26;;;;;;;2.38;0.80;;;;;;;;;;5052257;28;20107;-74
2021/03/19 04:36:11;;;;;;;1.55;0.75;;;;;;;;;;5019629;28;20045;-74
2021/03/19 04:38:37;;;;;;;1.23;0.68;;;;;;;;;;5052334;28;20033;-74
2021/03/19 04:41:02;;;;;;;1.20;0.82;;;;;;;;;;5019322;28;20049;-74
2021/03/19 04:43:28;;;;;;;1.67;0.80;;;;;;;;;;5035685;28;20037;-74
2021/03/19 04:45:53;;;;;;;1.55;0.90;;;;;;;;;;5052235;28;20037;-74
2021/03/19 04:48:19;;;;;;;1.25;0.77;;;;;;;;;;5035434;28;20441;-74
2021/03/19 04:50:45;;;;;;;2.13;0.80;;;;;;;;;;5035584;28;20438;-74
2021/03/19 04:53:11;;;;;;;1.88;0.57;;;;;;;;;;5050957;28;20055;-74
2021/03/19 04:55:36;;;;;;;1.88;1.00;;;;;;;;;;5052013;28;20495;-74
2021/03/19 04:58:02;;;;;;;1.58;0.80;;;;;;;;;;5035437;28;20398;-74
2021/03/19 05:00:27;;;;;;;1.95;1.17;;;;;;;;;;5035177;28;20083;-74
2021/03/19 05:02:52;;;;;;;2.20;1.00;;;;;;;;;;5034909;28;20430;-74
2021/03/19 05:05:31;;;;;;;1.98;0.90;;;;;;;;;;5018669;28;20411;-74
2021/03/19 05:07:57;;;;;;;2.30;1.20;;;;;;;;;;5036186;28;20033;-74
2021/03/19 05:10:26;;;;;;;0.95;0.60;;;;;;;;;;5016703;28;20028;-74
2021/03/19 05:12:51;;;;;;;1.13;0.70;;;;;;;;;;5017492;28;20049;-74
2021/03/19 05:15:17;;;;;;;2.17;1.08;;;;;;;;;;5034095;28;20059;-74
2021/03/19 05:17:42;;;;;;;2.22;1.23;;;;;;;;;;5033417;28;20036;-74
2021/03/19 05:20:09;;;;;;;2.13;1.02;;;;;;;;;;5034527;28;20037;-74
2021/03/19 05:22:35;;;;;;;2.53;1.13;;;;;;;;;;5018706;28;20086;-74
2021/03/19 05:25:01;;;;;;;2.10;1.13;;;;;;;;;;5035113;28;20442;-74
2021/03/19 05:27:26;;;;;;;1.60;1.05;;;;;;;;;;5050187;28;20040;-74
2021/03/19 05:29:55;;;;;;;1.40;0.80;;;;;;;;;;5054998;28;20036;-74
2021/03/19 05:32:24;;;;;;;2.47;0.88;;;;;;;;;;5055133;28;20048;-74
2021/03/19 05:34:50;;;;;;;1.58;0.80;;;;;;;;;;5054911;28;20441;-74
2021/03/19 05:37:15;;;;;;;2.15;1.17;;;;;;;;;;5054776;28;20029;-74
2021/03/19 05:39:41;;;;;;;1.33;0.98;;;;;;;;;;5071103;28;20029;-75
2021/03/19 05:42:16;;;;;;;1.90;0.85;;;;;;;;;;5054258;28;20137;-74
2021/03/19 05:44:43;;;;;;;2.38;1.20;;;;;;;;;;5070751;28;20041;-74
2021/03/19 05:47:08;;;;;;;2.13;1.00;;;;;;;;;;5037255;28;20037;-74
2021/03/19 05:49:34;;;;;;;1.90;1.02;;;;;;;;;;5054337;28;20062;-75
2021/03/19 05:52:09;;;;;;;1.73;1.08;;;;;;;;;;5035150;28;20041;-74
2021/03/19 05:54:34;;;;;;;2.35;1.38;;;;;;;;;;5068595;28;20070;-74
2021/03/19 05:56:59;;;;;;;4.57;1.35;;;;;;;;;;5071033;28;20044;-74
2021/03/19 05:59:26;;;;;;;4.50;1.45;;;;;;;;;;5071860;28;20081;-74
2021/03/19 06:01:51;;;;;;;6.18;1.70;;;;;;;;;;5070917;28;20048;-74
2021/03/19 06:04:21;;;;;;;6.63;1.90;;;;;;;;;;5054324;28;20398;-74
2021/03/19 06:06:48;;;;;;;3.20;1.45;;;;;;;;;;5035836;28;20044;-74
2021/03/19 06:09:30;;;;;;;2.50;1.38;;;;;;;;;;5051761;28;20575;-74
2021/03/19 06:12:17;;;;;;;3.00;1.47;;;;;;;;;;5050519;28;20410;-74
2021/03/19 06:14:51;;;;;;;3.45;2.17;;;;;;;;;;5035857;28;20053;-74
2021/03/19 06:17:30;;;;;;;3.85;1.75;;;;;;;;;;5050599;28;20141;-74
2021/03/19 06:20:02;;;;;;;6.32;1.90;;;;;;;;;;5050815;28;20033;-73
2021/03/19 06:22:37;;;;;;;5.53;1.88;;;;;;;;;;5050052;28;20036;-73
2021/03/19 06:25:17;;;;;;;3.45;1.67;;;;;;;;;;5050604;28;20071;-73
2021/03/19 06:27:53;;;;;;;4.20;1.92;;;;;;;;;;5049702;28;20495;-73
2021/03/19 06:30:37;;;;;;;5.05;2.80;;;;;;;;;;5050388;28;20043;-72
2021/03/19 06:33:11;;;;;;;5.45;2.42;;;;;;;;;;5034931;28;20402;-73
2021/03/19 06:35:37;;;;;;;8.05;2.88;;;;;;;;;;5051533;28;20052;-73
2021/03/19 06:38:24;;;;;;;5.47;1.92;;;;;;;;;;5033490;28;20037;-73
2021/03/19 06:40:50;;;;;;;8.18;2.13;;;;;;;;;;5051328;28;20079;-73
2021/03/19 06:43:21;;;;;;;6.63;2.53;;;;;;;;;;5033021;28;20041;-73
2021/03/19 06:45:48;;;;;;;3.88;2.22;;;;;;;;;;5049176;28;20045;-72
2021/03/19 06:48:28;;;;;;;5.57;2.75;;;;;;;;;;5054549;28;20064;-72
2021/03/19 06:50:53;;;;;;;6.20;2.72;;;;;;;;;;5037103;28;20033;-72
2021/03/19 06:53:21;;;;;;;6.25;2.78;;;;;;;;;;5035528;28;20065;-72
2021/03/19 06:55:54;;;;;;;5.28;2.80;;;;;;;;;;5030247;28;20037;-72
2021/03/19 06:58:40;;;;;;;4.38;3.00;;;;;;;;;;5030805;28;20092;-72
2021/03/19 07:01:14;;;;;;;4.55;2.40;;;;;;;;;;5062888;28;20033;-72
2021/03/19 07:03:52;;;;;;;4.88;3.25;;;;;;;;;;5030283;28;20064;-72
2021/03/19 07:06:38;;;;;;;4.88;3.17;;;;;;;;;;5028812;28;20821;-72
2021/03/19 07:09:32;;;;;;;4.57;2.70;;;;;;;;;;5029810;28;20151;-72
2021/03/19 07:12:15;;;;;;;3.20;2.25;;;;;;;;;;5048834;28;20036;-74
2021/03/19 07:14:52;;;;;;;9.10;2.67;;;;;;;;;;5045246;28;20069;-72
2021/03/19 07:17:51;;;;;;;5.93;2.85;;;;;;;;;;5049588;28;20036;-75
2021/03/19 07:20:45;;;;;;;5.53;2.70;;;;;;;;;;5049319;28;20041;-75
2021/03/19 07:23:20;;;;;;;11.10;3.05;;;;;;;;;;5015970;28;20564;-75
2021/03/19 07:25:54;;;;;;;8.30;3.05;;;;;;;;;;5049584;28;20045;-74
2021/03/19 07:28:22;;;;;;;10.52;3.58;;;;;;;;;;5033805;28;20039;-74
2021/03/19 07:31:38;;;;;;;11.65;3.47;;;;;;;;;;5050382;28;20045;-73
2021/03/19 07:34:21;;;;;;;6.57;2.83;;;;;;;;;;5026199;28;20038;-73
2021/03/19 07:36:56;;;;;;;6.35;2.70;;;;;;;;;;5029875;28;20053;-73
2021/03/19 07:39:38;;;;;;;9.85;2.92;;;;;;;;;;5030179;28;20034;-74
2021/03/19 07:42:45;;;;;;;9.40;3.40;;;;;;;;;;5034207;28;20086;-74
2021/03/19 07:45:32;;;;;;;6.40;2.95;;;;;;;;;;5015004;28;20092;-74
2021/03/19 07:48:20;;;;;;;10.05;3.38;;;;;;;;;;5034590;28;20033;-74
2021/03/19 07:51:05;;;;;;;7.88;3.17;;;;;;;;;;5033551;28;20497;-74
2021/03/19 07:53:44;;;;;;;5.43;3.13;;;;;;;;;;5034184;28;20029;-74
2021/03/19 07:56:36;;;;;;;4.50;2.67;;;;;;;;;;5017323;28;20041;-73
2021/03/19 07:59:08;;;;;;;5.45;3.10;;;;;;;;;;5032899;28;20045;-74
2021/03/19 08:01:44;;;;;;;8.68;3.05;;;;;;;;;;5033218;28;20033;-74
2021/03/19 08:04:12;;;;;;;5.95;2.83;;;;;;;;;;5033882;28;20120;-74
2021/03/19 08:06:41;;;;;;;5.75;2.70;;;;;;;;;;5051208;28;20059;-73
2021/03/19 08:09:22;;;;;;;4.38;2.83;;;;;;;;;;5020522;28;20091;-73
2021/03/19 08:12:00;;;;;;;4.82;3.20;;;;;;;;;;5052565;28;20586;-74
2021/03/19 08:14:38;;;;;;;5.28;3.25;;;;;;;;;;5036487;28;20412;-73
2021/03/19 08:17:35;;;;;;;4.85;3.05;;;;;;;;;;5052973;28;20041;-74
2021/03/19 08:20:13;;;;;;;5.97;3.58;;;;;;;;;;5032099;28;20107;-74
2021/03/19 08:22:54;;;;;;;9.82;6.97;;;;;;;;;;5053711;28;20077;-73
2021/03/19 08:25:24;;;;;;;14.60;8.98;;;;;;;;;;5018560;28;20106;-73
2021/03/19 08:28:25;;;;;;;17.58;11.55;;;;;;;;;;5033762;28;20053;-73
2021/03/19 08:30:59;;;;;;;14.00;10.52;;;;;;;;;;5018079;28;20112;-73
2021/03/19 08:33:28;;;;;;;16.38;11.77;;;;;;;;;;5052348;28;20040;-73
2021/03/19 08:36:05;;;;;;;15.90;11.93;;;;;;;;;;5053496;28;20408;-73
2021/03/19 08:38:32;;;;;;;15.80;11.60;;;;;;;;;;5052002;28;20037;-73
2021/03/19 08:40:59;;;;;;;15.60;11.63;;;;;;;;;;5051854;28;20071;-73
2021/03/19 08:43:34;;;;;;;14.45;10.82;;;;;;;;;;5052675;28;20171;-73
2021/03/19 08:46:14;;;;;;;14.35;11.27;;;;;;;;;;5052318;28;20045;-73
2021/03/19 08:49:05;;;;;;;14.45;11.27;;;;;;;;;;5036006;28;20123;-74
2021/03/19 08:51:31;;;;;;;14.63;11.37;;;;;;;;;;5052045;28;20056;-74
2021/03/19 08:54:19;;;;;;;13.52;11.05;;;;;;;;;;5052701;28;20267;-74
2021/03/19 08:56:47;;;;;;;13.60;10.60;;;;;;;;;;5052522;28;20033;-74
2021/03/19 08:59:49;;;;;;;13.10;9.13;;;;;;;;;;5052017;28;20541;-73
2021/03/19 09:02:41;;;;;;;12.13;9.93;;;;;;;;;;5031140;28;20038;-73
2021/03/19 09:05:43;;;;;;;13.02;9.75;;;;;;;;;;5051542;28;20100;-73
2021/03/19 09:08:21;;;;;;;12.90;9.73;;;;;;;;;;5036156;28;20044;-74
2021/03/19 09:10:46;;;;;;;13.18;9.02;;;;;;;;;;5035987;28;20037;-74
2021/03/19 09:13:16;;;;;;;14.00;9.35;;;;;;;;;;5052798;28;20037;-73
2021/03/19 09:15:45;;;;;;;11.80;8.15;;;;;;;;;;5035420;28;20059;-73
2021/03/19 09:18:11;;;;;;;10.45;7.82;;;;;;;;;;5052162;28;20083;-74
2021/03/19 09:20:36;;;;;;;11.95;8.55;;;;;;;;;;5052806;28;20411;-74
2021/03/19 09:23:04;;;;;;;10.02;7.25;;;;;;;;;;5052487;28;20029;-74
2021/03/19 09:25:42;;;;;;;10.40;7.30;;;;;;;;;;5053021;28;20108;-74
2021/03/19 09:28:30;;;;;;;8.65;6.35;;;;;;;;;;5032729;28;20037;-73
2021/03/19 09:30:58;;;;;;;9.23;6.40;;;;;;;;;;5031316;28;20041;-74
2021/03/19 09:33:42;;;;;;;9.38;7.65;;;;;;;;;;5031839;28;20041;-73
2021/03/19 09:36:45;;;;;;;10.40;6.68;;;;;;;;;;5032619;28;20080;-73
2021/03/19 09:39:31;;;;;;;;;;;;;;;;;;5033090;28;20044;-74
2021/03/19 09:41:56;;;;;;;8.88;6.38;;;;;;;;;;5035196;28;19975;-74
2021/03/19 09:44:26;;;;;;;8.57;5.63;;;;;;;;;;4998433;28;20500;-74
2021/03/19 09:47:01;;;;;;;8.90;5.93;;;;;;;;;;5014856;28;20033;-74
2021/03/19 09:49:27;;;;;;;7.28;4.93;;;;;;;;;;5014821;28;20033;-74
2021/03/19 09:51:53;;;;;;;7.55;5.30;;;;;;;;;;5047064;28;20060;-74
2021/03/19 09:54:28;;;;;;;7.78;5.65;;;;;;;;;;4998213;28;20116;-74
2021/03/19 09:56:55;;;;;;;7.15;5.55;;;;;;;;;;5031981;28;20033;-74
2021/03/19 09:59:23;;;;;;;7.25;4.70;;;;;;;;;;5015179;28;20104;-73
2021/03/19 10:01:49;;;;;;;6.38;4.60;;;;;;;;;;4998439;28;20037;-74
2021/03/19 10:04:38;;;;;;;7.78;4.35;;;;;;;;;;4997638;28;20400;-74
2021/03/19 10:07:19;;;;;;;8.25;4.72;;;;;;;;;;5030482;28;20477;-74
2021/03/19 10:09:51;;;;;;;6.22;4.10;;;;;;;;;;5047741;28;20045;-74
2021/03/19 10:12:20;;;;;;;;;;;;;;;;;;5031956;28;20041;-74
2021/03/19 10:14:48;;;;;;;5.85;4.53;;;;;;;;;;5064281;28;19955;-74
2021/03/19 10:17:24;;;;;;;5.20;3.65;;;;;;;;;;5034316;28;20564;-74
2021/03/19 10:20:22;;;;;;;6.53;4.18;;;;;;;;;;5033922;28;20116;-74
2021/03/19 10:22:55;;;;;;;6.03;4.03;;;;;;;;;;5046281;28;20075;-74
2021/03/19 10:25:25;;;;;;;5.28;3.97;;;;;;;;;;5034638;28;20499;-74
2021/03/19 10:27:53;;;;;;;6.53;3.72;;;;;;;;;;5050382;28;20029;-74
2021/03/19 10:30:30;;;;;;;5.45;3.53;;;;;;;;;;5017653;28;20044;-74
2021/03/19 10:32:57;;;;;;;6.30;3.45;;;;;;;;;;5034842;28;20399;-74
2021/03/19 10:35:32;;;;;;;6.97;3.75;;;;;;;;;;5017224;28;20037;-74
2021/03/19 10:38:02;;;;;;;4.72;3.20;;;;;;;;;;5033982;28;20092;-74
2021/03/19 10:40:38;;;;;;;5.35;3.40;;;;;;;;;;5050266;28;20124;-74
2021/03/19 10:43:19;;;;;;;5.85;2.83;;;;;;;;;;5034757;28;20102;-74
2021/03/19 10:46:00;;;;;;;4.65;3.15;;;;;;;;;;5034370;28;20029;-74
2021/03/19 10:48:45;;;;;;;4.80;3.20;;;;;;;;;;5034084;28;20104;-74
2021/03/19 10:51:28;;;;;;;5.05;2.83;;;;;;;;;;5049929;28;20116;-74
2021/03/19 10:54:01;;;;;;;4.90;2.35;;;;;;;;;;5035261;28;20037;-74
2021/03/19 10:56:27;;;;;;;6.22;3.22;;;;;;;;;;5034369;28;20045;-74
2021/03/19 10:58:55;;;;;;;4.13;2.45;;;;;;;;;;5017399;28;20037;-74
2021/03/19 11:01:37;;;;;;;3.80;2.10;;;;;;;;;;5018200;28;20115;-74
2021/03/19 11:04:26;;;;;;;4.63;2.85;;;;;;;;;;5050889;28;20403;-74
2021/03/19 11:06:51;;;;;;;4.63;2.80;;;;;;;;;;5051376;28;20515;-74
2021/03/19 11:09:25;;;;;;;3.70;2.30;;;;;;;;;;5033397;28;20040;-74
2021/03/19 11:11:58;;;;;;;3.80;2.38;;;;;;;;;;5049988;28;20087;-74
2021/03/19 11:14:26;;;;;;;4.47;2.80;;;;;;;;;;5033673;28;20044;-74
2021/03/19 11:16:53;;;;;;;3.85;2.20;;;;;;;;;;5004784;28;20110;-74
2021/03/19 11:19:24;;;;;;;4.32;2.28;;;;;;;;;;5037368;28;20403;-74
2021/03/19 11:22:05;;;;;;;3.60;2.17;;;;;;;;;;5037238;28;20037;-74
2021/03/19 11:24:33;;;;;;;3.90;2.10;;;;;;;;;;5021887;28;20411;-74
2021/03/19 11:27:07;;;;;;;3.15;1.88;;;;;;;;;;5053659;28;20045;-74
2021/03/19 11:29:34;;;;;;;3.38;2.30;;;;;;;;;;5054735;28;20507;-74
2021/03/19 11:32:14;;;;;;;4.28;2.33;;;;;;;;;;5053755;28;20033;-74
2021/03/19 11:34:54;;;;;;;3.70;2.03;;;;;;;;;;5053402;28;20044;-74
2021/03/19 11:37:19;;;;;;;3.45;2.03;;;;;;;;;;5037880;28;20033;-74
2021/03/19 11:39:53;;;;;;;3.63;2.00;;;;;;;;;;5054487;28;20491;-74
2021/03/19 11:42:23;;;;;;;5.18;2.25;;;;;;;;;;5053437;28;20523;-74
2021/03/19 11:44:50;;;;;;;4.35;2.35;;;;;;;;;;5053382;28;20045;-74
2021/03/19 11:47:23;;;;;;;3.78;2.05;;;;;;;;;;5036732;28;20407;-74
2021/03/19 11:49:49;;;;;;;3.25;1.73;;;;;;;;;;5053600;28;20049;-74
2021/03/19 11:52:15;;;;;;;5.43;2.08;;;;;;;;;;5036631;28;20032;-74
2021/03/19 11:54:41;;;;;;;3.50;1.80;;;;;;;;;;5020546;28;20037;-74
2021/03/19 11:57:07;;;;;;;3.45;2.17;;;;;;;;;;5020373;28;20136;-74
2021/03/19 11:59:33;;;;;;;2.92;1.70;;;;;;;;;;5036923;28;20029;-74
2021/03/19 12:02:02;;;;;;;3.90;2.42;;;;;;;;;;5052857;28;20041;-74
2021/03/19 12:04:27;;;;;;;4.72;2.25;;;;;;;;;;5036978;28;20400;-74
2021/03/19 12:06:53;;;;;;;5.03;2.20;;;;;;;;;;5052826;28;20048;-74
2021/03/19 12:09:18;;;;;;;3.38;1.95;;;;;;;;;;5036577;28;20060;-74
2021/03/19 12:11:43;;;;;;;2.92;1.55;;;;;;;;;;5052953;28;20111;-74
2021/03/19 12:14:26;;;;;;;2.85;1.65;;;;;;;;;;5036289;28;20040;-74
2021/03/19 12:16:51;;;;;;;3.75;2.10;;;;;;;;;;5052747;28;20033;-74
2021/03/19 12:19:18;;;;;;;3.55;1.67;;;;;;;;;;5036670;28;20175;-74
2021/03/19 12:21:44;;;;;;;3.50;1.85;;;;;;;;;;5036303;28;20051;-74
2021/03/19 12:24:09;;;;;;;2.78;1.52;;;;;;;;;;5036176;28;20037;-74
2021/03/19 12:26:35;;;;;;;2.70;1.40;;;;;;;;;;5035525;28;20033;-74
2021/03/19 12:29:00;;;;;;;3.13;1.58;;;;;;;;;;5052521;28;20097;-74
2021/03/19 12:31:26;;;;;;;3.42;2.10;;;;;;;;;;5019451;28;20495;-73
2021/03/19 12:33:51;;;;;;;2.88;1.48;;;;;;;;;;5036375;28;20037;-74
2021/03/19 12:36:17;;;;;;;2.88;1.88;;;;;;;;;;5035971;28;20068;-74
2021/03/19 12:38:42;;;;;;;3.03;1.77;;;;;;;;;;5052519;28;20060;-74
2021/03/19 12:41:08;;;;;;;2.97;1.50;;;;;;;;;;5035505;28;20083;-74
2021/03/19 12:43:33;;;;;;;3.25;1.45;;;;;;;;;;5035629;28;20053;-74
2021/03/19 12:45:59;;;;;;;2.97;1.60;;;;;;;;;;5035632;28;20499;-74
2021/03/19 12:48:24;;;;;;;2.22;1.27;;;;;;;;;;5035865;28;20062;-73
2021/03/19 12:50:50;;;;;;;2.88;1.55;;;;;;;;;;5035701;28;20037;-74
2021/03/19 12:53:18;;;;;;;2.97;1.20;;;;;;;;;;5019197;28;20052;-74
2021/03/19 12:55:43;;;;;;;3.03;1.48;;;;;;;;;;5035924;28;20040;-74
2021/03/19 12:58:09;;;;;;;3.33;1.48;;;;;;;;;;5052261;28;20079;-74
2021/03/19 13:00:35;;;;;;;2.55;1.45;;;;;;;;;;5035666;28;20529;-74
2021/03/19 13:03:01;;;;;;;3.05;1.50;;;;;;;;;;5035572;28;20040;-74
2021/03/19 13:05:27;;;;;;;2.88;1.17;;;;;;;;;;5051859;28;20029;-74
2021/03/19 13:07:53;;;;;;;3.10;1.48;;;;;;;;;;5035564;28;20025;-74
2021/03/19 13:10:19;;;;;;;1.88;1.15;;;;;;;;;;5035155;28;20040;-73
2021/03/19 13:12:45;;;;;;;2.38;1.15;;;;;;;;;;5018578;28;20041;-73
2021/03/19 13:15:12;;;;;;;2.65;1.38;;;;;;;;;;5034509;28;20037;-73
2021/03/19 13:17:37;;;;;;;3.08;1.67;;;;;;;;;;5016871;28;20426;-73
2021/03/19 13:20:04;;;;;;;1.83;0.77;;;;;;;;;;5028807;28;20052;-73
2021/03/19 13:22:30;;;;;;;2.85;1.27;;;;;;;;;;5033904;28;20041;-73
2021/03/19 13:24:55;;;;;;;3.10;1.25;;;;;;;;;;5025318;28;20047;-73
2021/03/19 13:27:20;;;;;;;2.30;1.15;;;;;;;;;;5051104;28;20120;-73
2021/03/19 13:29:46;;;;;;;2.53;1.20;;;;;;;;;;5017992;28;20060;-73
2021/03/19 13:32:11;;;;;;;2.50;1.10;;;;;;;;;;5018798;28;20412;-73
2021/03/19 13:34:37;;;;;;;2.60;1.50;;;;;;;;;;5034508;28;20470;-73
2021/03/19 13:37:02;;;;;;;3.17;1.20;;;;;;;;;;5034668;28;20037;-73
2021/03/19 13:39:31;;;;;;;2.80;1.38;;;;;;;;;;5033968;28;20392;-73
2021/03/19 13:41:56;;;;;;;2.17;1.00;;;;;;;;;;5051097;28;20127;-73
2021/03/19 13:44:23;;;;;;;2.30;0.80;;;;;;;;;;5050852;28;20112;-73
2021/03/19 13:46:49;;;;;;;2.15;1.00;;;;;;;;;;5016763;28;20072;-73
2021/03/19 13:49:14;;;;;;;2.50;1.10;;;;;;;;;;5050560;28;20525;-73
2021/03/19 13:51:39;;;;;;;2.25;0.90;;;;;;;;;;5050986;28;20059;-73
2021/03/19 13:54:05;;;;;;;2.05;1.00;;;;;;;;;;5033896;28;20396;-73
2021/03/19 13:56:30;;;;;;;2.50;1.30;;;;;;;;;;5034216;28;20045;-74
2021/03/19 13:59:02;;;;;;;2.17;1.02;;;;;;;;;;5033998;28;20571;-74
2021/03/19 14:01:28;;;;;;;2.25;0.85;;;;;;;;;;5034866;28;20499;-74
2021/03/19 14:03:53;;;;;;;1.77;0.88;;;;;;;;;;5052259;28;20045;-73
2021/03/19 14:06:22;;;;;;;1.35;0.65;;;;;;;;;;5034174;28;20791;-73
2021/03/19 14:08:48;;;;;;;2.10;1.00;;;;;;;;;;5049983;28;20090;-73
2021/03/19 14:11:14;;;;;;;2.22;1.25;;;;;;;;;;5033524;28;20053;-73
2021/03/19 14:13:40;;;;;;;1.63;0.75;;;;;;;;;;5017547;28;20037;-73
2021/03/19 14:16:06;;;;;;;1.90;0.90;;;;;;;;;;5034286;28;20102;-73
2021/03/19 14:18:31;;;;;;;2.63;0.88;;;;;;;;;;5017834;28;20028;-73
2021/03/19 14:20:57;;;;;;;1.80;0.80;;;;;;;;;;5033587;28;20120;-74
2021/03/19 14:23:24;;;;;;;2.20;0.90;;;;;;;;;;5031664;28;20033;-74
2021/03/19 14:25:51;;;;;;;2.33;1.20;;;;;;;;;;5017045;28;20041;-73
2021/03/19 14:28:23;;;;;;;1.85;1.05;;;;;;;;;;5033613;28;20070;-73
2021/03/19 14:30:48;;;;;;;;;;;;;;;;;;5030762;28;20531;-73
2021/03/19 14:33:14;;;;;;;2.55;1.05;;;;;;;;;;5066957;28;19965;-73
2021/03/19 14:35:40;;;;;;;1.73;0.80;;;;;;;;;;5017386;28;20033;-73
2021/03/19 14:38:06;;;;;;;1.38;0.70;;;;;;;;;;5016836;28;20037;-73
2021/03/19 14:40:34;;;;;;;2.03;0.75;;;;;;;;;;5033692;28;20479;-73
2021/03/19 14:43:00;;;;;;;2.05;0.70;;;;;;;;;;5033271;28;20049;-73
2021/03/19 14:45:25;;;;;;;1.70;0.88;;;;;;;;;;5017554;28;20037;-73
2021/03/19 14:47:51;;;;;;;2.67;0.98;;;;;;;;;;5017399;28;20033;-73
2021/03/19 14:50:17;;;;;;;2.10;0.80;;;;;;;;;;5039216;28;20041;-73
2021/03/19 14:52:42;;;;;;;1.55;0.70;;;;;;;;;;5040193;28;20483;-73
2021/03/19 14:55:09;;;;;;;1.67;0.80;;;;;;;;;;5036128;28;20059;-76
2021/03/19 14:57:34;;;;;;;2.08;1.08;;;;;;;;;;5039717;28;20109;-75
2021/03/19 15:00:00;;;;;;;1.75;0.70;;;;;;;;;;5020221;28;20454;-75
2021/03/19 15:02:25;;;;;;;2.10;0.60;;;;;;;;;;5056238;28;20025;-75
2021/03/19 15:04:51;;;;;;;1.80;0.70;;;;;;;;;;5023386;28;20033;-75
2021/03/19 15:07:16;;;;;;;1.63;0.57;;;;;;;;;;5039934;28;20055;-76
2021/03/19 15:09:42;;;;;;;2.08;0.80;;;;;;;;;;5039833;28;20045;-75